Terminal Aerodrome Forecast
Issued by NWS Portland, OR

Home | Current Version | Previous Version | Text Only | Print | Product List | Glossary On
Versions: 1 2 3 4 5 6 7 8 9 10 11 12 13 14 15 16 17 18 19 20 21 22
000
FTUS46 KPQR 200527
TAFHIO
TAF
KHIO 200527Z 2006/2106 12008KT P6SM SCT040 BKN050
     FM201200 10010KT P6SM BKN060
     FM201500 11012KT 5SM -RA OVC030
     FM201700 12010KT 3SM -RA OVC009
     FM202100 11007KT P6SM OVC035
     FM210000 08006KT P6SM -SHRA BKN040 OVC100=

USA.gov is the U.S. government's official web portal to all federal, state and local government web resources and services.